createdAt,value
2016-06-13T00:00:15.043Z,24.8
2016-06-13T00:01:14.860Z,24.74
2016-06-13T00:02:14.863Z,24.74
2016-06-13T00:03:14.927Z,24.75
2016-06-13T00:04:14.883Z,24.74
2016-06-13T00:05:14.903Z,24.78
2016-06-13T00:06:15.015Z,24.78
2016-06-13T00:07:14.940Z,24.75
2016-06-13T00:08:15.177Z,24.71
2016-06-13T00:09:14.946Z,24.78
2016-06-13T00:10:14.949Z,24.77
2016-06-13T00:11:15.077Z,24.78
2016-06-13T00:12:14.987Z,24.74
2016-06-13T00:13:14.991Z,24.77
2016-06-13T00:14:14.993Z,24.8
2016-06-13T00:15:15.042Z,24.77
2016-06-13T00:16:14.858Z,24.78
2016-06-13T00:17:15.112Z,24.71
2016-06-13T00:18:15.771Z,24.71
2016-06-13T00:19:15.101Z,24.78
2016-06-13T00:20:15.074Z,24.74
2016-06-13T00:21:15.061Z,24.75
2016-06-13T00:22:15.080Z,24.71
2016-06-13T00:23:15.396Z,24.74
2016-06-13T00:24:15.103Z,24.77
2016-06-13T00:25:15.120Z,24.69
2016-06-13T00:26:15.655Z,24.71
2016-06-13T00:27:15.126Z,24.75
2016-06-13T00:28:15.145Z,24.7
2016-06-13T00:29:15.149Z,24.8
2016-06-13T00:30:15.151Z,24.77
2016-06-13T00:31:15.420Z,24.75
2016-06-13T00:32:15.345Z,24.75
2016-06-13T00:33:15.208Z,24.74
2016-06-13T00:34:15.211Z,24.74
2016-06-13T00:35:15.417Z,24.75
2016-06-13T00:36:15.217Z,24.74
2016-06-13T00:37:15.235Z,24.71
2016-06-13T00:38:15.254Z,24.74
2016-06-13T00:39:15.507Z,24.71
2016-06-13T00:40:15.433Z,24.77
2016-06-13T00:41:15.763Z,24.71
2016-06-13T00:42:15.297Z,24.77
2016-06-13T00:43:15.301Z,24.7
2016-06-13T00:44:15.320Z,24.75
2016-06-13T00:45:15.525Z,24.7
2016-06-13T00:46:15.685Z,24.67
2016-06-13T00:47:15.203Z,24.74
2016-06-13T00:48:15.410Z,24.75
2016-06-13T00:49:15.366Z,24.71
2016-06-13T00:50:15.385Z,24.74
2016-06-13T00:51:15.544Z,24.69
2016-06-13T00:52:15.406Z,24.66
2016-06-13T00:53:15.409Z,24.77
2016-06-13T00:54:15.820Z,24.75
2016-06-13T00:55:15.634Z,24.64
2016-06-13T00:56:15.748Z,24.69
2016-06-13T00:57:15.594Z,24.67
2016-06-13T00:58:15.472Z,24.71
2016-06-13T00:59:15.475Z,24.71
2016-06-13T01:00:15.478Z,24.71
2016-06-13T01:01:15.591Z,24.74
2016-06-13T01:02:15.781Z,24.71
2016-06-13T01:03:15.519Z,24.74
2016-06-13T01:04:15.537Z,24.74
2016-06-13T01:05:15.572Z,24.75
2016-06-13T01:06:15.403Z,24.69
2016-06-13T01:07:15.609Z,24.77
2016-06-13T01:08:15.472Z,24.67
2016-06-13T01:09:15.583Z,24.7
2016-06-13T01:10:15.586Z,24.7
2016-06-13T01:11:15.605Z,24.7
2016-06-13T01:12:15.812Z,24.64
2016-06-13T01:13:15.628Z,24.7
2016-06-13T01:14:15.739Z,24.7
2016-06-13T01:15:15.634Z,24.7
2016-06-13T01:16:15.496Z,24.75
2016-06-13T01:17:15.671Z,24.74
2016-06-13T01:18:15.674Z,24.71
2016-06-13T01:19:15.677Z,24.66
2016-06-13T01:20:15.696Z,24.64
2016-06-13T01:21:15.699Z,24.71
2016-06-13T01:22:15.921Z,24.59
2016-06-13T01:23:15.737Z,24.7
2016-06-13T01:24:15.739Z,24.63
2016-06-13T01:25:15.757Z,24.69
2016-06-13T01:26:16.464Z,24.71
2016-06-13T01:27:15.796Z,24.64
2016-06-13T01:28:15.783Z,24.7
2016-06-13T01:29:15.786Z,24.7
2016-06-13T01:30:15.898Z,24.63
2016-06-13T01:31:15.823Z,24.63
2016-06-13T01:32:15.826Z,24.69
2016-06-13T01:33:15.845Z,24.69
2016-06-13T01:34:15.849Z,24.64
2016-06-13T01:35:15.851Z,24.64
2016-06-13T01:36:15.870Z,24.61
2016-06-13T01:37:15.874Z,24.69
2016-06-13T01:38:15.892Z,24.66
2016-06-13T01:39:15.895Z,24.69
2016-06-13T01:40:15.913Z,24.66
2016-06-13T01:41:15.917Z,24.64
2016-06-13T01:42:15.935Z,24.71
2016-06-13T01:43:15.938Z,24.64
2016-06-13T01:44:15.957Z,24.75
2016-06-13T01:45:15.961Z,24.77
2016-06-13T01:46:15.979Z,24.75
2016-06-13T01:47:15.982Z,24.64
2016-06-13T01:48:16.016Z,24.75
2016-06-13T01:49:16.003Z,24.69
2016-06-13T01:50:16.007Z,24.71
2016-06-13T01:51:16.025Z,24.71
2016-06-13T01:52:16.059Z,24.7
2016-06-13T01:53:16.047Z,24.69
2016-06-13T01:54:16.066Z,24.71
2016-06-13T01:55:16.068Z,24.71
2016-06-13T01:56:16.869Z,24.69
2016-06-13T01:57:16.091Z,24.7
2016-06-13T01:58:16.109Z,24.69
2016-06-13T01:59:16.112Z,24.7
2016-06-13T02:00:16.115Z,24.67
2016-06-13T02:01:16.135Z,24.69
2016-06-13T02:02:16.168Z,24.74
2016-06-13T02:03:16.156Z,24.67
2016-06-13T02:04:16.175Z,24.75
2016-06-13T02:05:16.177Z,24.66
2016-06-13T02:06:16.181Z,24.66
2016-06-13T02:07:16.044Z,24.74
2016-06-13T02:08:16.218Z,24.67
2016-06-13T02:09:16.253Z,24.74
2016-06-13T02:10:16.225Z,24.69
2016-06-13T02:11:16.274Z,24.63
2016-06-13T02:12:16.262Z,24.67
2016-06-13T02:13:16.265Z,24.66
2016-06-13T02:14:16.268Z,24.69
2016-06-13T02:15:16.272Z,24.64
2016-06-13T02:16:16.289Z,24.58
2016-06-13T02:17:16.308Z,24.66
2016-06-13T02:18:16.311Z,24.61
2016-06-13T02:19:16.346Z,24.71
2016-06-13T02:20:16.334Z,24.66
2016-06-13T02:21:16.352Z,24.75
2016-06-13T02:22:16.355Z,24.63
2016-06-13T02:23:16.374Z,24.61
2016-06-13T02:24:16.393Z,24.71
2016-06-13T02:25:16.396Z,24.74
2016-06-13T02:26:16.727Z,24.67
2016-06-13T02:27:16.261Z,24.74
2016-06-13T02:28:16.420Z,24.67
2016-06-13T02:29:16.424Z,24.66
2016-06-13T02:30:16.442Z,24.71
2016-06-13T02:31:16.305Z,24.61
2016-06-13T02:32:16.480Z,24.64
2016-06-13T02:33:16.483Z,24.67
2016-06-13T02:34:16.485Z,24.59
2016-06-13T02:35:16.505Z,24.56
2016-06-13T02:36:16.523Z,24.7
2016-06-13T02:37:16.511Z,24.58
2016-06-13T02:38:16.529Z,24.69
2016-06-13T02:39:16.532Z,24.63
2016-06-13T02:40:16.551Z,24.64
2016-06-13T02:41:16.570Z,24.58
2016-06-13T02:42:16.573Z,24.56
2016-06-13T02:43:16.577Z,24.58
2016-06-13T02:44:16.595Z,24.54
2016-06-13T02:45:16.613Z,24.56
2016-06-13T02:46:16.617Z,24.59
2016-06-13T02:47:16.620Z,24.69
2016-06-13T02:48:16.623Z,24.59
2016-06-13T02:49:16.640Z,24.59
2016-06-13T02:50:16.659Z,24.61
2016-06-13T02:51:16.663Z,24.56
2016-06-13T02:52:16.666Z,24.56
2016-06-13T02:53:16.685Z,24.56
2016-06-13T02:54:16.688Z,24.61
2016-06-13T02:55:16.707Z,24.58
2016-06-13T02:56:16.678Z,24.52
2016-06-13T02:57:16.728Z,24.7
2016-06-13T02:58:16.732Z,24.56
2016-06-13T02:59:16.751Z,24.55
2016-06-13T03:00:16.597Z,24.58
2016-06-13T03:01:16.771Z,24.55
2016-06-13T03:02:16.775Z,24.63
2016-06-13T03:03:16.794Z,24.56
2016-06-13T03:04:16.797Z,24.51
2016-06-13T03:05:16.815Z,24.55
2016-06-13T03:06:16.818Z,24.66
2016-06-13T03:07:16.837Z,24.55
2016-06-13T03:08:16.841Z,24.58
2016-06-13T03:09:16.859Z,24.55
2016-06-13T03:10:16.862Z,24.56
2016-06-13T03:11:17.569Z,24.63
2016-06-13T03:12:16.884Z,24.63
2016-06-13T03:13:16.902Z,24.54
2016-06-13T03:14:16.765Z,24.58
2016-06-13T03:15:16.940Z,24.56
2016-06-13T03:16:16.927Z,24.64
2016-06-13T03:17:16.946Z,24.56
2016-06-13T03:18:16.949Z,24.58
2016-06-13T03:19:16.968Z,24.56
2016-06-13T03:20:16.986Z,24.7
2016-06-13T03:21:16.990Z,24.63
2016-06-13T03:22:16.992Z,24.63
2016-06-13T03:23:16.995Z,24.58
2016-06-13T03:24:17.014Z,24.58
2016-06-13T03:25:17.034Z,24.55
2016-06-13T03:26:17.036Z,24.56
2016-06-13T03:27:17.076Z,24.56
2016-06-13T03:28:16.964Z,24.61
2016-06-13T03:29:17.163Z,24.61
2016-06-13T03:30:17.223Z,24.55
2016-06-13T03:31:17.282Z,24.55
2016-06-13T03:32:17.327Z,24.59
2016-06-13T03:33:17.328Z,24.63
2016-06-13T03:34:17.361Z,24.56
2016-06-13T03:35:17.378Z,24.56
2016-06-13T03:36:17.412Z,24.56
2016-06-13T03:37:17.424Z,24.63
2016-06-13T03:38:17.447Z,24.55
2016-06-13T03:39:17.472Z,24.56
2016-06-13T03:40:17.480Z,24.55
2016-06-13T03:41:17.833Z,24.7
2016-06-13T03:42:17.354Z,24.56
2016-06-13T03:43:17.516Z,24.59
2016-06-13T03:44:17.536Z,24.51
2016-06-13T03:45:17.557Z,24.59
2016-06-13T03:46:17.562Z,24.55
2016-06-13T03:47:17.567Z,24.59
2016-06-13T03:48:17.587Z,24.64
2016-06-13T03:49:17.590Z,24.71
2016-06-13T03:50:17.609Z,24.61
2016-06-13T03:51:17.613Z,24.63
2016-06-13T03:52:17.633Z,24.63
2016-06-13T03:53:17.635Z,24.66
2016-06-13T03:54:17.639Z,24.58
2016-06-13T03:55:17.656Z,24.55
2016-06-13T03:56:18.692Z,24.58
2016-06-13T03:57:17.695Z,24.66
2016-06-13T03:58:17.698Z,24.63
2016-06-13T03:59:17.701Z,24.69
2016-06-13T04:00:17.704Z,24.58
2016-06-13T04:01:17.722Z,24.59
2016-06-13T04:02:17.725Z,24.64
2016-06-13T04:03:17.745Z,24.64
2016-06-13T04:04:17.763Z,24.66
2016-06-13T04:05:17.610Z,24.58
2016-06-13T04:06:17.769Z,24.63
2016-06-13T04:07:17.788Z,24.66
2016-06-13T04:08:17.635Z,24.58
2016-06-13T04:09:17.809Z,24.63
2016-06-13T04:10:17.828Z,24.63
2016-06-13T04:11:17.831Z,24.69
2016-06-13T04:12:17.834Z,24.58
2016-06-13T04:13:17.853Z,24.66
2016-06-13T04:14:17.700Z,24.56
2016-06-13T04:15:17.875Z,24.7
2016-06-13T04:16:17.879Z,24.64
2016-06-13T04:17:17.896Z,24.71
2016-06-13T04:18:17.899Z,24.71
2016-06-13T04:19:17.919Z,24.71
2016-06-13T04:20:17.922Z,24.67
2016-06-13T04:21:17.940Z,24.7
2016-06-13T04:22:17.943Z,24.64
2016-06-13T04:23:17.961Z,24.63
2016-06-13T04:24:17.981Z,24.59
2016-06-13T04:25:17.984Z,24.64
2016-06-13T04:26:18.564Z,24.69
2016-06-13T04:27:18.693Z,24.74
2016-06-13T04:28:18.008Z,24.63
2016-06-13T04:29:18.027Z,24.66
2016-06-13T04:30:17.874Z,24.71
2016-06-13T04:31:18.331Z,24.64
2016-06-13T04:32:18.302Z,24.69
2016-06-13T04:33:18.055Z,24.66
2016-06-13T04:34:18.073Z,24.71
2016-06-13T04:35:18.092Z,24.69
2016-06-13T04:36:18.096Z,24.67
2016-06-13T04:37:18.114Z,24.69
2016-06-13T04:38:18.118Z,24.74
2016-06-13T04:39:18.324Z,24.74
2016-06-13T04:40:18.139Z,24.69
2016-06-13T04:41:18.142Z,24.7
2016-06-13T04:42:18.505Z,24.67
2016-06-13T04:43:18.179Z,24.64
2016-06-13T04:44:18.168Z,24.69
2016-06-13T04:45:18.185Z,24.69
2016-06-13T04:46:18.032Z,24.7
2016-06-13T04:47:18.505Z,24.69
2016-06-13T04:48:18.460Z,24.63
2016-06-13T04:49:18.229Z,24.67
2016-06-13T04:50:18.247Z,24.64
2016-06-13T04:51:18.345Z,24.61
2016-06-13T04:52:18.457Z,24.63
2016-06-13T04:53:18.273Z,24.7
2016-06-13T04:54:18.292Z,24.61
2016-06-13T04:55:18.498Z,24.61
2016-06-13T04:56:18.407Z,24.7
2016-06-13T04:57:18.848Z,24.77
2016-06-13T04:58:18.476Z,24.71
2016-06-13T04:59:18.338Z,24.66
2016-06-13T05:00:18.341Z,24.74
2016-06-13T05:01:18.376Z,24.7
2016-06-13T05:02:18.660Z,24.64
2016-06-13T05:03:18.382Z,24.7
2016-06-13T05:04:18.432Z,24.69
2016-06-13T05:05:18.403Z,24.61
2016-06-13T05:06:18.407Z,24.61
2016-06-13T05:07:18.519Z,24.69
2016-06-13T05:08:18.428Z,24.74
2016-06-13T05:09:18.447Z,24.74
2016-06-13T05:10:18.809Z,24.7
2016-06-13T05:11:18.469Z,24.74
2016-06-13T05:12:18.487Z,24.67
2016-06-13T05:13:18.506Z,24.7
2016-06-13T05:14:18.760Z,24.74
2016-06-13T05:15:18.497Z,24.67
2016-06-13T05:16:18.515Z,24.66
2016-06-13T05:17:18.363Z,24.69
2016-06-13T05:18:18.569Z,24.7
2016-06-13T05:19:18.540Z,24.71
2016-06-13T05:20:18.606Z,24.69
2016-06-13T05:21:18.578Z,24.71
2016-06-13T05:22:18.581Z,24.74
2016-06-13T05:23:18.584Z,24.7
2016-06-13T05:24:18.790Z,24.69
2016-06-13T05:25:18.668Z,24.74
2016-06-13T05:26:18.641Z,24.75
2016-06-13T05:27:18.644Z,24.7
2016-06-13T05:28:18.646Z,24.67
2016-06-13T05:29:18.961Z,24.66
2016-06-13T05:30:18.668Z,24.67
2016-06-13T05:31:18.765Z,24.74
2016-06-13T05:32:18.690Z,24.7
2016-06-13T05:33:18.708Z,24.74
2016-06-13T05:34:18.555Z,24.69
2016-06-13T05:35:19.027Z,24.66
2016-06-13T05:36:18.780Z,24.67
2016-06-13T05:37:18.736Z,24.75
2016-06-13T05:38:18.755Z,24.69
2016-06-13T05:39:18.914Z,24.71
2016-06-13T05:40:18.776Z,24.71
2016-06-13T05:41:19.076Z,24.7
2016-06-13T05:42:18.830Z,24.7
2016-06-13T05:43:19.036Z,24.77
2016-06-13T05:44:19.117Z,24.7
2016-06-13T05:45:18.824Z,24.7
2016-06-13T05:46:19.186Z,24.71
2016-06-13T05:47:18.845Z,24.69
2016-06-13T05:48:18.848Z,24.71
2016-06-13T05:49:18.976Z,24.71
2016-06-13T05:50:18.714Z,24.7
2016-06-13T05:51:18.888Z,24.7
2016-06-13T05:52:19.095Z,24.71
2016-06-13T05:53:18.910Z,24.74
2016-06-13T05:54:18.914Z,24.74
2016-06-13T05:55:19.120Z,24.71
2016-06-13T05:56:19.044Z,24.74
2016-06-13T05:57:19.439Z,24.74
2016-06-13T05:58:19.160Z,24.78
2016-06-13T05:59:18.820Z,24.75
2016-06-13T06:00:18.979Z,24.75
2016-06-13T06:01:19.090Z,24.78
2016-06-13T06:02:19.016Z,24.77
2016-06-13T06:03:19.019Z,24.83
2016-06-13T06:04:19.022Z,24.75
2016-06-13T06:05:19.041Z,24.8
2016-06-13T06:06:19.045Z,24.77
2016-06-13T06:07:19.109Z,24.77
2016-06-13T06:08:19.065Z,24.75
2016-06-13T06:09:18.928Z,24.8
2016-06-13T06:10:19.291Z,24.92
2016-06-13T06:11:19.107Z,25.23
2016-06-13T06:12:19.124Z,25.45
2016-06-13T06:13:19.128Z,25.71
2016-06-13T06:14:19.131Z,25.96
2016-06-13T06:15:19.134Z,26.12
2016-06-13T06:16:18.997Z,26.12
2016-06-13T06:17:19.172Z,26.24
2016-06-13T06:18:19.175Z,26.2
2016-06-13T06:19:19.193Z,26.38
2016-06-13T06:20:19.196Z,26.37
2016-06-13T06:21:19.199Z,26.45
2016-06-13T06:22:19.218Z,26.49
2016-06-13T06:23:19.237Z,26.44
2016-06-13T06:24:19.240Z,26.44
2016-06-13T06:25:19.242Z,26.41
2016-06-13T06:26:19.262Z,26.52
2016-06-13T06:27:19.593Z,26.59
2016-06-13T06:28:19.299Z,26.6
2016-06-13T06:29:19.287Z,26.6
2016-06-13T06:30:19.305Z,26.63
2016-06-13T06:31:19.324Z,26.56
2016-06-13T06:32:19.327Z,26.64
2016-06-13T06:33:19.174Z,26.63
2016-06-13T06:34:19.350Z,26.63
2016-06-13T06:35:19.353Z,26.68
2016-06-13T06:36:19.387Z,26.56
2016-06-13T06:37:19.373Z,26.63
2016-06-13T06:38:19.392Z,26.63
2016-06-13T06:39:19.396Z,26.6
2016-06-13T06:40:19.414Z,26.6
2016-06-13T06:41:19.417Z,26.63
2016-06-13T06:42:19.842Z,26.63
2016-06-13T06:43:19.455Z,26.68
2016-06-13T06:44:19.301Z,26.64
2016-06-13T06:45:19.461Z,26.67
2016-06-13T06:46:19.323Z,26.64
2016-06-13T06:47:19.546Z,26.6
2016-06-13T06:48:19.485Z,26.6
2016-06-13T06:49:19.521Z,26.63
2016-06-13T06:50:19.507Z,26.74
2016-06-13T06:51:19.370Z,26.71
2016-06-13T06:52:19.561Z,26.69
2016-06-13T06:53:19.548Z,26.72
2016-06-13T06:54:19.582Z,26.72
2016-06-13T06:55:19.569Z,26.67
2016-06-13T06:56:19.573Z,26.69
2016-06-13T06:57:19.607Z,26.63
2016-06-13T06:58:19.610Z,26.68
2016-06-13T06:59:19.613Z,26.64
2016-06-13T07:00:19.632Z,26.39
2016-06-13T07:01:19.636Z,26.12
2016-06-13T07:02:19.653Z,25.81
2016-06-13T07:03:19.656Z,25.75
2016-06-13T07:04:19.676Z,25.74
2016-06-13T07:05:19.679Z,25.62
2016-06-13T07:06:19.713Z,25.66
2016-06-13T07:07:19.701Z,25.52
2016-06-13T07:08:19.735Z,25.69
2016-06-13T07:09:19.753Z,25.66
2016-06-13T07:10:19.725Z,25.75
2016-06-13T07:11:19.759Z,25.64
2016-06-13T07:12:19.981Z,25.67
2016-06-13T07:13:19.765Z,25.81
2016-06-13T07:14:19.769Z,25.64
2016-06-13T07:15:19.615Z,25.49
2016-06-13T07:16:19.791Z,25.56
2016-06-13T07:17:19.794Z,25.45
2016-06-13T07:18:19.797Z,25.41
2016-06-13T07:19:19.816Z,25.42
2016-06-13T07:20:19.833Z,25.37
2016-06-13T07:21:19.837Z,25.42
2016-06-13T07:22:19.840Z,25.41
2016-06-13T07:23:19.843Z,25.33
2016-06-13T07:24:19.862Z,25.12
2016-06-13T07:25:19.866Z,25.08
2016-06-13T07:26:19.884Z,25.04
2016-06-13T07:27:20.465Z,25.05
2016-06-13T07:28:20.312Z,24.87
2016-06-13T07:29:19.925Z,24.82
2016-06-13T07:30:19.927Z,24.9
2016-06-13T07:31:19.930Z,24.9
2016-06-13T07:32:19.948Z,25.05
2016-06-13T07:33:19.952Z,25.08
2016-06-13T07:34:19.954Z,25.08
2016-06-13T07:35:19.958Z,25.07
2016-06-13T07:36:19.977Z,24.74
2016-06-13T07:37:19.980Z,24.34
2016-06-13T07:38:19.999Z,24.27
2016-06-13T07:39:20.002Z,24.36
2016-06-13T07:40:20.020Z,24.15
2016-06-13T07:41:20.024Z,24.36
2016-06-13T07:42:20.104Z,24.39
2016-06-13T07:43:19.999Z,24.39
2016-06-13T07:44:20.049Z,24.39
2016-06-13T07:45:20.067Z,24.36
2016-06-13T07:46:19.929Z,24.59
2016-06-13T07:47:20.120Z,24.71
2016-06-13T07:48:20.077Z,24.7
2016-06-13T07:49:20.095Z,24.42
2016-06-13T07:50:20.114Z,24.64
2016-06-13T07:51:20.101Z,24.59
2016-06-13T07:52:20.120Z,24.71
2016-06-13T07:53:19.983Z,24.51
2016-06-13T07:54:20.126Z,24.39
2016-06-13T07:55:20.004Z,24.49
2016-06-13T07:56:20.164Z,24.21
2016-06-13T07:57:20.667Z,24.07
2016-06-13T07:58:20.450Z,24.36
2016-06-13T07:59:20.017Z,24.59
2016-06-13T08:00:20.192Z,24.7
2016-06-13T08:01:20.195Z,24.66
2016-06-13T08:02:20.198Z,24.49
2016-06-13T08:03:20.060Z,24.34
2016-06-13T08:04:20.219Z,24.27
2016-06-13T08:05:20.222Z,24.09
2016-06-13T08:06:20.241Z,24.3
2016-06-13T08:07:20.244Z,24.36
2016-06-13T08:08:20.263Z,24.59
2016-06-13T08:09:20.282Z,24.45
2016-06-13T08:10:20.269Z,24.78
2016-06-13T08:11:20.287Z,24.52
2016-06-13T08:12:21.041Z,24.34
2016-06-13T08:13:20.310Z,24.77
2016-06-13T08:14:20.296Z,25.02
2016-06-13T08:15:20.316Z,25.26
2016-06-13T08:16:20.318Z,25.49
2016-06-13T08:17:20.337Z,25.49
2016-06-13T08:18:20.340Z,25.66
2016-06-13T08:19:20.343Z,25.67
2016-06-13T08:20:20.362Z,25.79
2016-06-13T08:21:20.366Z,25.76
2016-06-13T08:22:20.384Z,25.86
2016-06-13T08:23:20.403Z,25.91
2016-06-13T08:24:20.233Z,25.84
2016-06-13T08:25:20.408Z,26.06
2016-06-13T08:26:20.256Z,26.16
2016-06-13T08:27:21.056Z,26.07
2016-06-13T08:28:20.449Z,26.09
2016-06-13T08:29:20.453Z,26.09
2016-06-13T08:30:20.456Z,26.09
2016-06-13T08:31:20.474Z,26.09
2016-06-13T08:32:20.477Z,26.22
2016-06-13T08:33:20.480Z,26.22
2016-06-13T08:34:20.499Z,26.23
2016-06-13T08:35:20.502Z,26.26
2016-06-13T08:36:20.365Z,26.19
2016-06-13T08:37:20.524Z,26.23
2016-06-13T08:38:20.543Z,26.23
2016-06-13T08:39:20.561Z,26.34
2016-06-13T08:40:20.565Z,26.37
2016-06-13T08:41:20.583Z,26.42
2016-06-13T08:42:20.742Z,26.52
2016-06-13T08:43:21.167Z,26.42
2016-06-13T08:44:20.608Z,26.56
2016-06-13T08:45:20.627Z,26.57
2016-06-13T08:46:20.645Z,26.63
2016-06-13T08:47:20.633Z,26.63
2016-06-13T08:48:20.651Z,26.72
2016-06-13T08:49:20.655Z,26.72
2016-06-13T08:50:20.673Z,26.79
2016-06-13T08:51:20.676Z,26.81
2016-06-13T08:52:20.695Z,26.84
2016-06-13T08:53:20.698Z,26.86
2016-06-13T08:54:20.716Z,26.84
2016-06-13T08:55:20.720Z,26.81
2016-06-13T08:56:20.582Z,26.86
2016-06-13T08:57:20.742Z,26.86
2016-06-13T08:58:20.776Z,26.81
2016-06-13T08:59:20.763Z,26.91
2016-06-13T09:00:20.782Z,26.94
2016-06-13T09:01:20.786Z,26.99
2016-06-13T09:02:20.788Z,26.93
2016-06-13T09:03:20.807Z,26.99
2016-06-13T09:04:20.810Z,26.91
2016-06-13T09:05:20.829Z,26.93
2016-06-13T09:06:20.847Z,26.99
2016-06-13T09:07:20.851Z,26.96
2016-06-13T09:08:20.869Z,26.97
2016-06-13T09:09:20.872Z,26.91
2016-06-13T09:10:20.891Z,26.86
2016-06-13T09:11:20.893Z,26.86
2016-06-13T09:12:20.897Z,26.86
2016-06-13T09:13:20.791Z,26.82
2016-06-13T09:14:20.919Z,26.94
2016-06-13T09:15:20.953Z,27.01
2016-06-13T09:16:20.941Z,26.93
2016-06-13T09:17:20.959Z,26.96
2016-06-13T09:18:20.821Z,27
2016-06-13T09:19:20.982Z,27.09
2016-06-13T09:20:20.985Z,27.06
2016-06-13T09:21:21.002Z,27.09
2016-06-13T09:22:21.006Z,27.11
2016-06-13T09:23:21.009Z,27.13
2016-06-13T09:24:21.042Z,27.12
2016-06-13T09:25:21.046Z,27.16
2016-06-13T09:26:21.299Z,27.12
2016-06-13T09:27:21.068Z,27.3
2016-06-13T09:28:22.227Z,27.13
2016-06-13T09:29:21.091Z,27.27
2016-06-13T09:30:21.108Z,27.27
2016-06-13T09:31:21.096Z,27.28
2016-06-13T09:32:21.131Z,27.24
2016-06-13T09:33:21.134Z,27.26
2016-06-13T09:34:20.981Z,27.27
2016-06-13T09:35:21.171Z,27.21
2016-06-13T09:36:21.158Z,27.12
2016-06-13T09:37:21.193Z,27.21
2016-06-13T09:38:21.196Z,27.16
2016-06-13T09:39:21.449Z,27.13
2016-06-13T09:40:21.217Z,27.16
2016-06-13T09:41:21.564Z,27.15
2016-06-13T09:42:21.223Z,27.15
2016-06-13T09:43:21.368Z,27.15
2016-06-13T09:44:21.246Z,27.15
2016-06-13T09:45:21.264Z,27.26
2016-06-13T09:46:21.579Z,27.28
2016-06-13T09:47:21.286Z,27.33
2016-06-13T09:48:21.289Z,27.33
2016-06-13T09:49:21.416Z,27.31
2016-06-13T09:50:21.467Z,27.37
2016-06-13T09:51:21.330Z,27.45
2016-06-13T09:52:21.333Z,27.38
2016-06-13T09:53:21.695Z,27.43
2016-06-13T09:54:21.354Z,27.38
2016-06-13T09:55:21.530Z,27.45
2016-06-13T09:56:21.251Z,27.42
2016-06-13T09:57:21.394Z,27.41
2016-06-13T09:58:21.961Z,27.42
2016-06-13T09:59:21.432Z,27.37
2016-06-13T10:00:21.747Z,27.51
2016-06-13T10:01:21.438Z,27.43
2016-06-13T10:02:21.285Z,27.55
2016-06-13T10:03:21.585Z,27.42
2016-06-13T10:04:21.494Z,27.37
2016-06-13T10:05:21.591Z,27.46
2016-06-13T10:06:21.501Z,27.49
2016-06-13T10:07:21.660Z,27.43
2016-06-13T10:08:21.882Z,27.45
2016-06-13T10:09:21.542Z,27.51
2016-06-13T10:10:21.559Z,27.45
2016-06-13T10:11:21.562Z,27.43
2016-06-13T10:12:21.582Z,27.43
2016-06-13T10:13:21.929Z,27.42
2016-06-13T10:14:21.603Z,27.37
2016-06-13T10:15:21.668Z,27.48
2016-06-13T10:16:21.641Z,27.48
2016-06-13T10:17:21.628Z,27.42
2016-06-13T10:18:21.647Z,27.45
2016-06-13T10:19:21.665Z,27.43
2016-06-13T10:20:35.809Z,27.46
2016-06-13T10:21:21.672Z,27.38
2016-06-13T10:22:21.675Z,27.48
2016-06-13T10:23:21.740Z,27.42
2016-06-13T10:24:21.697Z,27.42
2016-06-13T10:25:21.715Z,27.38
2016-06-13T10:26:21.780Z,27.51
2016-06-13T10:27:21.783Z,27.55
2016-06-13T10:28:22.303Z,27.46
2016-06-13T10:29:22.025Z,27.53
2016-06-13T10:30:21.792Z,27.53
2016-06-13T10:31:21.781Z,27.49
2016-06-13T10:32:21.799Z,27.45
2016-06-13T10:33:21.802Z,27.52
2016-06-13T10:34:21.821Z,27.52
2016-06-13T10:35:21.841Z,27.59
2016-06-13T10:36:21.686Z,27.59
2016-06-13T10:37:21.861Z,27.64
2016-06-13T10:38:21.864Z,27.62
2016-06-13T10:39:22.070Z,27.59
2016-06-13T10:40:21.886Z,27.59
2016-06-13T10:41:22.202Z,27.64
2016-06-13T10:42:21.924Z,27.64
2016-06-13T10:43:22.302Z,27.65
2016-06-13T10:44:21.945Z,27.65
2016-06-13T10:45:22.214Z,27.66
2016-06-13T10:46:21.983Z,27.68
2016-06-13T10:47:22.111Z,27.52
2016-06-13T10:48:22.020Z,27.57
2016-06-13T10:49:21.992Z,27.59
2016-06-13T10:50:22.276Z,27.64
2016-06-13T10:51:22.014Z,27.64
2016-06-13T10:52:22.345Z,27.64
2016-06-13T10:53:22.051Z,27.65
2016-06-13T10:54:22.054Z,27.62
2016-06-13T10:55:22.277Z,27.69
2016-06-13T10:56:22.076Z,27.69
2016-06-13T10:57:22.236Z,27.81
2016-06-13T10:58:22.801Z,27.79
2016-06-13T10:59:22.132Z,27.87
2016-06-13T11:00:22.104Z,27.83
2016-06-13T11:01:36.279Z,27.8
2016-06-13T11:02:22.141Z,27.87
2016-06-13T11:03:22.301Z,27.8
2016-06-13T11:04:22.163Z,27.84
2016-06-13T11:05:22.322Z,27.79
2016-06-13T11:06:22.201Z,27.81
2016-06-13T11:07:22.235Z,27.79
2016-06-13T11:08:22.363Z,27.74
2016-06-13T11:09:22.241Z,27.65
2016-06-13T11:10:22.229Z,27.62
2016-06-13T11:11:22.232Z,27.68
2016-06-13T11:12:22.250Z,27.65
2016-06-13T11:13:22.238Z,27.64
2016-06-13T11:14:22.288Z,27.65
2016-06-13T11:15:22.603Z,27.75
2016-06-13T11:16:22.294Z,27.65
2016-06-13T11:17:22.312Z,27.66
2016-06-13T11:18:22.315Z,27.65
2016-06-13T11:19:22.350Z,27.62
2016-06-13T11:20:22.354Z,27.52
2016-06-13T11:21:22.341Z,27.62
2016-06-13T11:22:22.344Z,27.48
2016-06-13T11:23:22.205Z,27.52
2016-06-13T11:24:22.381Z,27.65
2016-06-13T11:25:22.384Z,27.79
2016-06-13T11:26:22.403Z,27.79
2016-06-13T11:27:22.421Z,27.72
2016-06-13T11:28:22.612Z,27.76
2016-06-13T11:29:22.443Z,27.93
2016-06-13T11:30:26.149Z,27.79
2016-06-13T11:31:22.308Z,27.8
2016-06-13T11:32:22.468Z,27.87
2016-06-13T11:33:22.486Z,27.81
2016-06-13T11:34:22.490Z,27.81
2016-06-13T11:35:22.509Z,27.79
2016-06-13T11:36:22.512Z,27.76
2016-06-13T11:37:22.515Z,27.76
2016-06-13T11:38:22.518Z,27.79
2016-06-13T11:39:22.537Z,27.76
2016-06-13T11:40:22.571Z,27.93
2016-06-13T11:41:22.574Z,27.87
2016-06-13T11:42:22.577Z,27.91
2016-06-13T11:43:22.580Z,27.89
2016-06-13T11:44:22.615Z,28.01
2016-06-13T11:45:22.602Z,28.01
2016-06-13T11:46:22.620Z,27.98
2016-06-13T11:47:22.607Z,28.02
2016-06-13T11:48:22.642Z,28.08
2016-06-13T11:49:22.660Z,28.05
2016-06-13T11:50:22.663Z,28.03
2016-06-13T11:51:22.667Z,28.08
2016-06-13T11:52:22.702Z,28.18
2016-06-13T11:53:22.705Z,28.16
2016-06-13T11:54:22.708Z,28.14
2016-06-13T11:55:22.711Z,28.16
2016-06-13T11:56:22.745Z,28.18
2016-06-13T11:57:22.749Z,28.23
2016-06-13T11:58:22.782Z,28.17
2016-06-13T11:59:22.769Z,28.2
2016-06-13T12:00:22.788Z,28.26
2016-06-13T12:01:22.776Z,28.26
2016-06-13T12:02:22.811Z,28.3
2016-06-13T12:03:22.797Z,28.26
2016-06-13T12:04:22.817Z,28.27
2016-06-13T12:05:22.850Z,28.24
2016-06-13T12:06:22.853Z,28.28
2016-06-13T12:07:22.873Z,28.3
2016-06-13T12:08:22.891Z,28.2
2016-06-13T12:09:22.863Z,28.26
2016-06-13T12:10:22.882Z,28.28
2016-06-13T12:11:22.885Z,28.16
2016-06-13T12:12:22.919Z,28.12
2016-06-13T12:13:22.641Z,28.09
2016-06-13T12:14:22.847Z,28.14
2016-06-13T12:15:22.944Z,28.16
2016-06-13T12:16:22.821Z,28.12
2016-06-13T12:17:22.965Z,28.09
2016-06-13T12:18:22.985Z,28.11
2016-06-13T12:19:23.019Z,28.14
2016-06-13T12:20:23.006Z,28.14
2016-06-13T12:21:23.025Z,28.14
2016-06-13T12:22:23.028Z,28.17
2016-06-13T12:23:23.047Z,28.06
2016-06-13T12:24:23.065Z,28.2
2016-06-13T12:25:23.054Z,28.2
2016-06-13T12:26:23.071Z,28.3
2016-06-13T12:27:23.074Z,28.26
2016-06-13T12:28:23.125Z,28.2
2016-06-13T12:29:24.097Z,28.26
2016-06-13T12:30:23.147Z,28.11
2016-06-13T12:31:23.133Z,28.16
2016-06-13T12:32:23.168Z,28.14
2016-06-13T12:33:23.187Z,28.11
2016-06-13T12:34:23.231Z,28.05
2016-06-13T12:35:23.290Z,28.01
2016-06-13T12:36:23.349Z,28.01
2016-06-13T12:37:23.393Z,27.81
2016-06-13T12:38:23.432Z,27.81
2016-06-13T12:39:23.450Z,27.65
2016-06-13T12:40:23.468Z,27.79
2016-06-13T12:41:23.517Z,27.65
2016-06-13T12:42:23.535Z,27.79
2016-06-13T12:43:24.904Z,27.84
2016-06-13T12:44:23.959Z,27.79
2016-06-13T12:45:23.576Z,27.94
2016-06-13T12:46:23.600Z,28.03
2016-06-13T12:47:23.655Z,28.02
2016-06-13T12:48:23.645Z,28.03
2016-06-13T12:49:23.619Z,28.02
2016-06-13T12:50:23.640Z,28.08
2016-06-13T12:51:23.660Z,28.14
2016-06-13T12:52:23.681Z,28.2
2016-06-13T12:53:23.685Z,28.26
2016-06-13T12:54:23.705Z,28.18
2016-06-13T12:55:23.709Z,27.87